createdAt,value
2019-02-16T00:01:55.457Z,4.57
2019-02-16T00:08:01.205Z,5.40
2019-02-16T00:14:07.482Z,5.30
2019-02-16T00:20:13.512Z,5.27
2019-02-16T00:26:19.487Z,5.90
2019-02-16T00:32:25.333Z,7.07
2019-02-16T00:38:31.095Z,5.97
2019-02-16T00:44:38.665Z,7.33
2019-02-16T00:50:44.375Z,5.90
2019-02-16T00:56:50.225Z,5.40
2019-02-16T01:02:56.067Z,5.37
2019-02-16T01:09:01.784Z,6.13
2019-02-16T01:15:09.479Z,6.10
2019-02-16T01:21:22.608Z,5.43
2019-02-16T01:27:22.865Z,5.53
2019-02-16T01:33:28.658Z,6.50
2019-02-16T01:39:34.740Z,6.57
2019-02-16T01:45:40.457Z,7.93
2019-02-16T01:51:46.478Z,6.33
2019-02-16T01:57:52.398Z,5.90
2019-02-16T02:03:58.147Z,7.43
2019-02-16T02:10:04.040Z,6.07
2019-02-16T02:16:09.760Z,6.63
2019-02-16T02:22:15.472Z,6.47
2019-02-16T02:28:21.211Z,6.73
2019-02-16T02:34:27.815Z,6.13
2019-02-16T02:40:33.886Z,6.07
2019-02-16T02:46:39.882Z,5.93
2019-02-16T02:52:45.620Z,5.53
2019-02-16T02:58:51.596Z,5.90
2019-02-16T03:04:57.438Z,5.97
2019-02-16T03:11:03.291Z,7.07
2019-02-16T03:17:09.068Z,6.27
2019-02-16T03:23:22.609Z,6.10
2019-02-16T03:30:35.945Z,5.87
2019-02-16T03:37:28.760Z,5.93
2019-02-16T03:43:34.697Z,7.90
2019-02-16T03:49:40.664Z,5.53
2019-02-16T03:55:46.500Z,6.50
2019-02-16T04:01:52.224Z,6.20
2019-02-16T04:07:57.947Z,5.40
2019-02-16T04:14:03.707Z,5.90
2019-02-16T04:20:09.671Z,5.67
2019-02-16T04:26:15.430Z,6.10
2019-02-16T04:32:21.446Z,6.13
2019-02-16T04:38:27.441Z,7.07
2019-02-16T04:44:33.654Z,6.50
2019-02-16T04:50:39.400Z,6.07
2019-02-16T04:56:45.169Z,6.30
2019-02-16T05:02:50.896Z,5.80
2019-02-16T05:08:56.620Z,6.10
2019-02-16T05:15:02.538Z,5.70
2019-02-16T05:21:08.263Z,6.13
2019-02-16T05:27:14.074Z,5.83
2019-02-16T05:33:19.813Z,6.73
2019-02-16T05:39:25.858Z,6.43
2019-02-16T05:45:31.570Z,5.77
2019-02-16T05:51:37.385Z,6.23
2019-02-16T05:57:43.117Z,6.83
2019-02-16T06:03:48.931Z,7.03
2019-02-16T06:09:54.646Z,6.67
2019-02-16T06:16:00.556Z,6.37
2019-02-16T06:22:06.359Z,6.57
2019-02-16T06:28:12.082Z,8.27
2019-02-16T06:34:17.817Z,6.80
2019-02-16T06:40:23.711Z,7.53
2019-02-16T06:46:31.095Z,9.10
2019-02-16T06:52:36.774Z,7.47
2019-02-16T06:58:42.558Z,7.73
2019-02-16T07:04:48.361Z,7.50
2019-02-16T07:10:54.247Z,7.47
2019-02-16T07:17:18.828Z,7.33
2019-02-16T07:23:24.988Z,7.53
2019-02-16T07:29:30.802Z,6.73
2019-02-16T07:35:36.555Z,6.83
2019-02-16T07:41:42.610Z,6.57
2019-02-16T07:48:09.348Z,6.77
2019-02-16T07:54:24.810Z,6.77
2019-02-16T08:00:39.585Z,7.10
2019-02-16T08:07:04.206Z,6.40
2019-02-16T08:13:28.797Z,7.90
2019-02-16T08:19:53.285Z,8.90
2019-02-16T08:26:06.049Z,7.63
2019-02-16T08:32:30.847Z,6.73
2019-02-16T08:38:53.180Z,7.23
2019-02-16T08:45:16.797Z,5.83
2019-02-16T08:51:35.018Z,7.33
2019-02-16T08:57:59.971Z,6.47
2019-02-16T09:04:24.785Z,6.30
2019-02-16T09:11:01.492Z,7.00
2019-02-16T09:17:18.513Z,6.10
2019-02-16T09:23:36.755Z,6.47
2019-02-16T09:30:01.530Z,6.37
2019-02-16T09:36:21.484Z,7.03
2019-02-16T09:42:42.891Z,6.63
2019-02-16T09:49:01.226Z,5.90
2019-02-16T09:55:26.695Z,6.73
2019-02-16T10:01:54.474Z,8.77
2019-02-16T10:08:11.114Z,8.17
2019-02-16T10:14:36.125Z,6.87
2019-02-16T10:20:49.920Z,6.83
2019-02-16T10:27:14.505Z,7.13
2019-02-16T10:33:57.771Z,7.90
2019-02-16T10:40:16.629Z,9.73
2019-02-16T10:46:53.373Z,11.33
2019-02-16T10:53:15.562Z,15.03
2019-02-16T10:59:29.596Z,14.43
2019-02-16T11:05:54.219Z,14.47
2019-02-16T11:12:17.469Z,11.17
2019-02-16T11:18:57.276Z,14.37
2019-02-16T11:25:31.254Z,14.27
2019-02-16T11:31:53.248Z,16.57
2019-02-16T11:38:16.674Z,15.53
2019-02-16T11:44:40.064Z,12.93
2019-02-16T11:51:00.235Z,15.20
2019-02-16T11:57:25.210Z,12.63
2019-02-16T12:03:40.500Z,16.47
2019-02-16T12:10:14.186Z,18.93
2019-02-16T12:16:29.461Z,16.37
2019-02-16T12:22:41.917Z,16.77
2019-02-16T12:29:14.273Z,16.33
2019-02-16T12:35:35.164Z,15.53
2019-02-16T12:41:59.772Z,24.83
2019-02-16T12:48:24.502Z,17.17
2019-02-16T12:55:01.066Z,14.33
2019-02-16T13:01:20.430Z,20.87
2019-02-16T13:07:36.705Z,19.50
2019-02-16T13:13:50.485Z,18.23
2019-02-16T13:20:14.784Z,16.53
2019-02-16T13:26:39.527Z,16.87
2019-02-16T13:32:58.383Z,18.83
2019-02-16T13:39:26.493Z,17.73
2019-02-16T13:45:54.199Z,16.13
2019-02-16T13:52:18.798Z,21.17
2019-02-16T13:58:43.464Z,18.67
2019-02-16T14:04:57.096Z,18.00
2019-02-16T14:11:21.948Z,18.70
2019-02-16T14:17:39.027Z,18.03
2019-02-16T14:23:45.063Z,18.40
2019-02-16T14:29:50.960Z,24.10
2019-02-16T14:35:56.786Z,25.80
2019-02-16T14:42:02.822Z,24.67
2019-02-16T14:48:08.668Z,21.20
2019-02-16T14:54:14.496Z,24.53
2019-02-16T15:00:20.485Z,19.90
2019-02-16T15:06:26.427Z,22.97
2019-02-16T15:12:32.173Z,25.63
2019-02-16T15:18:38.017Z,23.93
2019-02-16T15:24:43.838Z,21.27
2019-02-16T15:30:49.588Z,20.03
2019-02-16T15:36:55.416Z,19.50
2019-02-16T15:43:01.250Z,22.07
2019-02-16T15:49:07.081Z,24.10
2019-02-16T15:55:13.070Z,23.77
2019-02-16T16:01:18.985Z,24.83
2019-02-16T16:07:24.990Z,21.13
2019-02-16T16:13:52.371Z,22.43
2019-02-16T16:20:15.424Z,21.60
2019-02-16T16:26:42.642Z,22.50
2019-02-16T16:33:10.323Z,21.57
2019-02-16T16:39:33.572Z,22.40
2019-02-16T16:46:13.228Z,25.47
2019-02-16T16:52:43.971Z,23.40
2019-02-16T16:59:14.693Z,25.50
2019-02-16T17:05:54.746Z,26.70
2019-02-16T17:12:20.930Z,23.30
2019-02-16T17:18:51.957Z,27.53
2019-02-16T17:25:11.375Z,25.63
2019-02-16T17:31:22.624Z,25.83
2019-02-16T17:37:54.917Z,21.90
2019-02-16T17:44:25.395Z,19.33
2019-02-16T17:50:50.020Z,27.03
2019-02-16T17:57:14.703Z,19.97
2019-02-16T18:03:28.496Z,21.00
2019-02-16T18:09:52.575Z,39.00
2019-02-16T18:16:08.252Z,33.57
2019-02-16T18:22:28.854Z,34.90
2019-02-16T18:28:57.256Z,36.03
2019-02-16T18:35:23.878Z,28.47
2019-02-16T18:41:55.412Z,34.60
2019-02-16T18:48:23.802Z,30.87
2019-02-16T18:54:57.898Z,33.37
2019-02-16T19:01:20.091Z,21.63
2019-02-16T19:07:40.311Z,25.20
2019-02-16T19:13:53.702Z,26.07
2019-02-16T19:20:25.464Z,25.10
2019-02-16T19:26:39.155Z,22.90
2019-02-16T19:33:03.877Z,22.13
2019-02-16T19:39:18.999Z,25.70
2019-02-16T19:45:43.568Z,24.40
2019-02-16T19:52:12.650Z,26.77
2019-02-16T19:58:40.064Z,30.33
2019-02-16T20:05:08.198Z,23.57
2019-02-16T20:11:33.808Z,27.40
2019-02-16T20:17:49.824Z,25.33
2019-02-16T20:24:26.636Z,24.23
2019-02-16T20:31:00.303Z,24.13
2019-02-16T20:37:13.307Z,22.60
2019-02-16T20:43:36.374Z,22.63
2019-02-16T20:50:09.999Z,22.67
2019-02-16T20:56:52.776Z,19.17
2019-02-16T21:03:18.510Z,21.27
2019-02-16T21:09:52.042Z,20.60
2019-02-16T21:16:03.905Z,24.40
2019-02-16T21:22:34.711Z,19.80
2019-02-16T21:29:08.374Z,27.37
2019-02-16T21:35:31.473Z,26.07
2019-02-16T21:41:56.079Z,24.57
2019-02-16T21:48:17.066Z,26.37
2019-02-16T21:54:41.795Z,23.80
2019-02-16T22:01:21.327Z,24.60
2019-02-16T22:07:41.258Z,26.53
2019-02-16T22:13:47.291Z,24.90
2019-02-16T22:19:54.771Z,25.47
2019-02-16T22:26:00.616Z,24.07
2019-02-16T22:32:06.686Z,25.37
2019-02-16T22:38:12.582Z,24.23
2019-02-16T22:44:18.566Z,23.37
2019-02-16T22:50:24.368Z,27.27
2019-02-16T22:56:30.119Z,26.13
2019-02-16T23:02:35.874Z,23.97
2019-02-16T23:08:41.761Z,24.93
2019-02-16T23:14:47.554Z,27.57
2019-02-16T23:20:53.267Z,27.33
2019-02-16T23:26:59.423Z,26.93
2019-02-16T23:33:05.220Z,25.73
2019-02-16T23:39:11.868Z,26.17
2019-02-16T23:45:17.956Z,27.80
2019-02-16T23:51:23.742Z,25.60
2019-02-16T23:57:29.725Z,28.87
